createdAt,value
2019-05-26T00:06:08.000Z,46.7
2019-05-26T00:16:12.000Z,46.73
2019-05-26T00:26:08.000Z,46.835
2019-05-26T00:36:08.000Z,46.844
2019-05-26T00:46:08.000Z,46.917
2019-05-26T00:56:08.000Z,46.969
2019-05-26T01:06:08.000Z,47.02
2019-05-26T01:16:08.000Z,47.018
2019-05-26T01:26:08.000Z,47.123
2019-05-26T01:36:08.000Z,47.079
2019-05-26T01:46:08.000Z,47.163
2019-05-26T01:56:08.000Z,47.193
2019-05-26T02:06:08.000Z,47.234
2019-05-26T02:16:09.000Z,47.296
2019-05-26T02:26:08.000Z,47.284
2019-05-26T02:36:09.000Z,47.336
2019-05-26T02:46:08.000Z,47.355
2019-05-26T02:56:08.000Z,47.375
2019-05-26T03:16:08.000Z,47.521
2019-05-26T03:26:08.000Z,47.477
2019-05-26T03:36:08.000Z,47.529
2019-05-26T04:06:08.000Z,47.534
2019-05-26T04:16:08.000Z,47.597
2019-05-26T04:26:09.000Z,47.639
2019-05-26T04:36:08.000Z,47.658
2019-05-26T04:46:08.000Z,47.559
2019-05-26T04:56:08.000Z,47.569
2019-05-26T05:06:08.000Z,47.558
2019-05-26T05:16:10.000Z,47.514
2019-05-26T05:26:08.000Z,47.44
2019-05-26T05:36:08.000Z,47.345
2019-05-26T05:46:08.000Z,47.242
2019-05-26T05:56:08.000Z,47.253
2019-05-26T06:06:08.000Z,47.255
2019-05-26T06:26:08.000Z,47.178
2019-05-26T06:36:13.000Z,47.135
2019-05-26T06:46:09.000Z,47.245
2019-05-26T06:56:09.000Z,47.204
2019-05-26T07:06:08.000Z,47.206
2019-05-26T07:16:08.000Z,47.227
2019-05-26T07:26:09.000Z,47.304
2019-05-26T07:36:09.000Z,47.285
2019-05-26T07:46:09.000Z,47.223
2019-05-26T07:56:09.000Z,47.031
2019-05-26T08:06:09.000Z,46.976
2019-05-26T08:16:09.000Z,47.737
2019-05-26T08:26:10.000Z,48.4
2019-05-26T08:36:09.000Z,48.29
2019-05-26T08:46:11.000Z,48.055
2019-05-26T08:56:11.000Z,48.07
2019-05-26T09:06:09.000Z,47.969
2019-05-26T09:16:09.000Z,47.891
2019-05-26T09:26:09.000Z,47.875
2019-05-26T09:36:09.000Z,48.105
2019-05-26T09:46:11.000Z,48.059
2019-05-26T09:56:11.000Z,47.916
2019-05-26T10:06:09.000Z,48.115
2019-05-26T10:26:09.000Z,47.389
2019-05-26T10:36:09.000Z,47.552
2019-05-26T10:46:09.000Z,47.307
2019-05-26T11:06:09.000Z,47.15
2019-05-26T11:16:09.000Z,46.739
2019-05-26T11:26:09.000Z,46.699
2019-05-26T11:36:09.000Z,47.365
2019-05-26T11:46:09.000Z,46.626
2019-05-26T11:56:12.000Z,46.73
2019-05-26T12:16:09.000Z,46.539
2019-05-26T12:26:09.000Z,46.601
2019-05-26T12:36:09.000Z,46.523
2019-05-26T12:46:09.000Z,46.441
2019-05-26T12:56:09.000Z,46.268
2019-05-26T13:06:09.000Z,46.208
2019-05-26T13:16:09.000Z,46.434
2019-05-26T13:26:09.000Z,46.315
2019-05-26T13:36:11.000Z,46.186
2019-05-26T13:46:09.000Z,45.982
2019-05-26T13:56:09.000Z,45.982
2019-05-26T14:06:09.000Z,46.003
2019-05-26T14:16:09.000Z,45.905
2019-05-26T14:26:09.000Z,45.892
2019-05-26T14:36:10.000Z,45.903
2019-05-26T14:46:10.000Z,46.001
2019-05-26T14:56:09.000Z,46.013
2019-05-26T15:06:10.000Z,46.363
2019-05-26T15:16:09.000Z,46.05
2019-05-26T15:26:10.000Z,46.062
2019-05-26T15:36:10.000Z,46.084
2019-05-26T15:46:10.000Z,46.076
2019-05-26T15:56:10.000Z,45.979
2019-05-26T16:06:11.000Z,46.022
2019-05-26T16:16:10.000Z,46.056
2019-05-26T16:26:10.000Z,46.208
2019-05-26T16:36:10.000Z,46.121
2019-05-26T16:46:10.000Z,46.382
2019-05-26T16:56:10.000Z,46.798
2019-05-26T17:06:10.000Z,46.856
2019-05-26T17:16:10.000Z,46.55
2019-05-26T17:26:10.000Z,46.508
2019-05-26T17:36:11.000Z,46.645
2019-05-26T17:46:10.000Z,47.025
2019-05-26T17:56:14.000Z,48.317
2019-05-26T18:06:10.000Z,48.199
2019-05-26T18:16:10.000Z,48.068
2019-05-26T18:26:10.000Z,48.263
2019-05-26T18:36:10.000Z,48.157
2019-05-26T18:46:10.000Z,48.188
2019-05-26T18:56:10.000Z,48.255
2019-05-26T19:06:10.000Z,48.024
2019-05-26T19:16:10.000Z,47.838
2019-05-26T19:26:10.000Z,47.871
2019-05-26T19:36:10.000Z,48.545
2019-05-26T19:46:10.000Z,49.569
2019-05-26T19:56:10.000Z,49.17
2019-05-26T20:06:10.000Z,49.437
2019-05-26T20:16:10.000Z,49.164
2019-05-26T20:36:12.000Z,49.387
2019-05-26T20:46:12.000Z,49.483
2019-05-26T20:56:10.000Z,49.613
2019-05-26T21:06:10.000Z,49.621
2019-05-26T21:16:10.000Z,49.626
2019-05-26T21:26:10.000Z,49.819
2019-05-26T21:36:10.000Z,49.761
2019-05-26T21:46:10.000Z,49.866
2019-05-26T21:56:10.000Z,49.768
2019-05-26T22:06:12.000Z,49.821
2019-05-26T22:16:10.000Z,49.853
2019-05-26T22:26:10.000Z,49.851
2019-05-26T22:36:11.000Z,49.817
2019-05-26T22:46:10.000Z,49.889
2019-05-26T22:56:10.000Z,49.909
2019-05-26T23:06:10.000Z,49.864
2019-05-26T23:16:14.000Z,49.969
2019-05-26T23:26:10.000Z,50.085
2019-05-26T23:36:10.000Z,49.998
2019-05-26T23:46:10.000Z,50.167
2019-05-26T23:56:10.000Z,50.155
